<?xml version="1.0" encoding="UTF-8" standalone="no" ?>
<gpx xmlns="http://www.topografix.com/GPX/1/1" xmlns:xsi="http://www.w3.org/2001/XMLSchema-instance" xsi:schemaLocation="http://www.topografix.com/GPX/1/1 http://www.topografix.com/GPX/1/1/gpx.xsd" version="1.1" creator="VisuGPX - https://www.visugpx.com">
  <metadata>
    <name>boucles beaumont</name>
    <desc><![CDATA[boucles beaumont du périgord]]></desc>
  </metadata>
  <trk>
    <name><![CDATA[BBmt14]]></name>
    <trkseg>
      <trkpt lat="44.77683" lon="0.7044">
        <ele>121</ele>
        <time>2008-12-09T13:51:51Z</time>
      </trkpt>
      <trkpt lat="44.77673" lon="0.70418">
        <ele>118</ele>
        <time>2008-12-09T13:52:08Z</time>
      </trkpt>
      <trkpt lat="44.7766" lon="0.70398">
        <ele>117</ele>
        <time>2008-12-09T13:52:24Z</time>
      </trkpt>
      <trkpt lat="44.77645" lon="0.70383">
        <ele>113</ele>
        <time>2008-12-09T13:52:39Z</time>
      </trkpt>
      <trkpt lat="44.7763" lon="0.70365">
        <ele>111</ele>
        <time>2008-12-09T13:52:55Z</time>
      </trkpt>
      <trkpt lat="44.77615" lon="0.7035">
        <ele>109</ele>
        <time>2008-12-09T13:53:08Z</time>
      </trkpt>
      <trkpt lat="44.776" lon="0.7033">
        <ele>107</ele>
        <time>2008-12-09T13:53:24Z</time>
      </trkpt>
      <trkpt lat="44.77585" lon="0.70313">
        <ele>108</ele>
        <time>2008-12-09T13:53:39Z</time>
      </trkpt>
      <trkpt lat="44.7757" lon="0.70298">
        <ele>107</ele>
        <time>2008-12-09T13:53:54Z</time>
      </trkpt>
      <trkpt lat="44.77578" lon="0.70273">
        <ele>104</ele>
        <time>2008-12-09T13:54:14Z</time>
      </trkpt>
      <trkpt lat="44.7756" lon="0.70288">
        <ele>103</ele>
        <time>2008-12-09T13:55:23Z</time>
      </trkpt>
      <trkpt lat="44.77543" lon="0.7031">
        <ele>101</ele>
        <time>2008-12-09T13:55:27Z</time>
      </trkpt>
      <trkpt lat="44.77528" lon="0.7033">
        <ele>101</ele>
        <time>2008-12-09T13:55:30Z</time>
      </trkpt>
      <trkpt lat="44.7751" lon="0.70353">
        <ele>102</ele>
        <time>2008-12-09T13:55:33Z</time>
      </trkpt>
      <trkpt lat="44.77495" lon="0.7038">
        <ele>104</ele>
        <time>2008-12-09T13:55:36Z</time>
      </trkpt>
      <trkpt lat="44.77483" lon="0.70408">
        <ele>107</ele>
        <time>2008-12-09T13:55:39Z</time>
      </trkpt>
      <trkpt lat="44.7747" lon="0.70438">
        <ele>109</ele>
        <time>2008-12-09T13:55:42Z</time>
      </trkpt>
      <trkpt lat="44.7746" lon="0.70463">
        <ele>110</ele>
        <time>2008-12-09T13:55:45Z</time>
      </trkpt>
      <trkpt lat="44.77445" lon="0.7048">
        <ele>112</ele>
        <time>2008-12-09T13:55:56Z</time>
      </trkpt>
      <trkpt lat="44.77318" lon="0.7058">
        <ele>135</ele>
        <time>2009-06-18T16:43:36Z</time>
      </trkpt>
      <trkpt lat="44.77353" lon="0.7068">
        <ele>138</ele>
        <time>2009-06-18T16:43:36Z</time>
      </trkpt>
      <trkpt lat="44.77108" lon="0.70856">
        <ele>151</ele>
        <time>2008-12-09T13:56:37Z</time>
      </trkpt>
    </trkseg>
  </trk>
</gpx>